sensor_id;sensor_type;location;lat;lon;timestamp;P1;durP1;ratioP1;P2;durP2;ratioP2
19879;SDS011;10102;50.828;4.416;2022-08-19T00:00:20;22.60;;;14.68;;
19879;SDS011;10102;50.828;4.416;2022-08-19T00:02:46;23.75;;;18.02;;
19879;SDS011;10102;50.828;4.416;2022-08-19T00:05:13;21.95;;;17.92;;
19879;SDS011;10102;50.828;4.416;2022-08-19T00:07:40;28.13;;;18.80;;
19879;SDS011;10102;50.828;4.416;2022-08-19T00:10:08;22.38;;;17.77;;
19879;SDS011;10102;50.828;4.416;2022-08-19T00:12:37;26.05;;;20.17;;
19879;SDS011;10102;50.828;4.416;2022-08-19T00:15:07;28.65;;;20.02;;
19879;SDS011;10102;50.828;4.416;2022-08-19T00:17:43;33.47;;;23.90;;
19879;SDS011;10102;50.828;4.416;2022-08-19T00:20:11;39.80;;;24.58;;
19879;SDS011;10102;50.828;4.416;2022-08-19T00:22:39;45.17;;;26.42;;
19879;SDS011;10102;50.828;4.416;2022-08-19T00:25:06;46.45;;;29.75;;
19879;SDS011;10102;50.828;4.416;2022-08-19T00:27:33;47.67;;;29.95;;
19879;SDS011;10102;50.828;4.416;2022-08-19T00:29:58;49.25;;;31.60;;
19879;SDS011;10102;50.828;4.416;2022-08-19T00:32:25;59.53;;;31.70;;
19879;SDS011;10102;50.828;4.416;2022-08-19T00:34:51;57.28;;;33.38;;
19879;SDS011;10102;50.828;4.416;2022-08-19T00:37:21;58.42;;;34.33;;
19879;SDS011;10102;50.828;4.416;2022-08-19T00:39:50;61.30;;;36.72;;
19879;SDS011;10102;50.828;4.416;2022-08-19T00:42:17;61.17;;;36.70;;
19879;SDS011;10102;50.828;4.416;2022-08-19T00:44:43;62.83;;;36.60;;
19879;SDS011;10102;50.828;4.416;2022-08-19T00:47:09;64.50;;;38.47;;
19879;SDS011;10102;50.828;4.416;2022-08-19T00:49:37;69.35;;;38.42;;
19879;SDS011;10102;50.828;4.416;2022-08-19T00:52:09;62.22;;;36.80;;
19879;SDS011;10102;50.828;4.416;2022-08-19T00:54:39;63.92;;;37.70;;
19879;SDS011;10102;50.828;4.416;2022-08-19T00:57:07;60.85;;;38.53;;
19879;SDS011;10102;50.828;4.416;2022-08-19T00:59:37;67.65;;;39.63;;
19879;SDS011;10102;50.828;4.416;2022-08-19T01:02:06;66.55;;;39.67;;
19879;SDS011;10102;50.828;4.416;2022-08-19T01:04:32;62.40;;;39.72;;
19879;SDS011;10102;50.828;4.416;2022-08-19T01:06:58;59.40;;;37.17;;
19879;SDS011;10102;50.828;4.416;2022-08-19T01:09:24;64.38;;;39.90;;
19879;SDS011;10102;50.828;4.416;2022-08-19T01:11:50;63.80;;;38.97;;
19879;SDS011;10102;50.828;4.416;2022-08-19T01:14:16;64.82;;;38.47;;
19879;SDS011;10102;50.828;4.416;2022-08-19T01:16:43;58.15;;;35.03;;
19879;SDS011;10102;50.828;4.416;2022-08-19T01:22:06;57.55;;;36.15;;
19879;SDS011;10102;50.828;4.416;2022-08-19T01:24:40;56.53;;;35.15;;
19879;SDS011;10102;50.828;4.416;2022-08-19T01:27:06;54.83;;;33.22;;
19879;SDS011;10102;50.828;4.416;2022-08-19T01:29:33;55.85;;;33.33;;
19879;SDS011;10102;50.828;4.416;2022-08-19T01:32:03;55.38;;;31.95;;
19879;SDS011;10102;50.828;4.416;2022-08-19T01:34:29;52.78;;;29.98;;
19879;SDS011;10102;50.828;4.416;2022-08-19T01:36:56;47.67;;;29.65;;
19879;SDS011;10102;50.828;4.416;2022-08-19T01:39:23;48.38;;;30.38;;
19879;SDS011;10102;50.828;4.416;2022-08-19T01:41:50;46.28;;;30.50;;
19879;SDS011;10102;50.828;4.416;2022-08-19T01:44:19;46.58;;;29.17;;
19879;SDS011;10102;50.828;4.416;2022-08-19T01:46:49;42.15;;;27.77;;
19879;SDS011;10102;50.828;4.416;2022-08-19T01:49:17;37.38;;;26.52;;
19879;SDS011;10102;50.828;4.416;2022-08-19T01:51:44;42.88;;;27.45;;
19879;SDS011;10102;50.828;4.416;2022-08-19T01:54:12;36.45;;;24.33;;
19879;SDS011;10102;50.828;4.416;2022-08-19T01:56:40;36.85;;;24.35;;
19879;SDS011;10102;50.828;4.416;2022-08-19T01:59:08;39.78;;;22.92;;
19879;SDS011;10102;50.828;4.416;2022-08-19T02:01:37;33.88;;;23.55;;
19879;SDS011;10102;50.828;4.416;2022-08-19T02:04:04;37.05;;;24.65;;
19879;SDS011;10102;50.828;4.416;2022-08-19T02:06:30;33.78;;;22.77;;
19879;SDS011;10102;50.828;4.416;2022-08-19T02:08:57;39.35;;;23.48;;
19879;SDS011;10102;50.828;4.416;2022-08-19T02:11:27;34.65;;;24.15;;
19879;SDS011;10102;50.828;4.416;2022-08-19T02:13:56;32.47;;;22.08;;
19879;SDS011;10102;50.828;4.416;2022-08-19T02:16:23;35.97;;;20.67;;
19879;SDS011;10102;50.828;4.416;2022-08-19T02:18:49;28.45;;;19.27;;
19879;SDS011;10102;50.828;4.416;2022-08-19T02:21:16;27.33;;;19.00;;
19879;SDS011;10102;50.828;4.416;2022-08-19T02:23:43;28.35;;;18.05;;
19879;SDS011;10102;50.828;4.416;2022-08-19T02:26:11;28.63;;;17.58;;
19879;SDS011;10102;50.828;4.416;2022-08-19T02:28:38;29.30;;;18.48;;
19879;SDS011;10102;50.828;4.416;2022-08-19T02:31:08;32.88;;;21.05;;
19879;SDS011;10102;50.828;4.416;2022-08-19T02:33:42;36.78;;;22.73;;
19879;SDS011;10102;50.828;4.416;2022-08-19T02:36:10;34.92;;;22.38;;
19879;SDS011;10102;50.828;4.416;2022-08-19T02:38:37;33.55;;;21.63;;
19879;SDS011;10102;50.828;4.416;2022-08-19T02:41:04;35.17;;;21.35;;
19879;SDS011;10102;50.828;4.416;2022-08-19T02:43:33;27.38;;;19.88;;
19879;SDS011;10102;50.828;4.416;2022-08-19T02:46:16;32.75;;;20.65;;
19879;SDS011;10102;50.828;4.416;2022-08-19T02:48:48;27.48;;;18.70;;
19879;SDS011;10102;50.828;4.416;2022-08-19T02:51:15;32.78;;;19.35;;
19879;SDS011;10102;50.828;4.416;2022-08-19T02:53:49;28.90;;;19.00;;
19879;SDS011;10102;50.828;4.416;2022-08-19T02:56:15;28.42;;;19.55;;
19879;SDS011;10102;50.828;4.416;2022-08-19T02:58:41;30.17;;;19.30;;
19879;SDS011;10102;50.828;4.416;2022-08-19T03:01:08;30.50;;;19.63;;
19879;SDS011;10102;50.828;4.416;2022-08-19T03:03:35;32.60;;;20.27;;
19879;SDS011;10102;50.828;4.416;2022-08-19T03:06:09;31.48;;;19.15;;
19879;SDS011;10102;50.828;4.416;2022-08-19T03:08:40;30.40;;;18.58;;
19879;SDS011;10102;50.828;4.416;2022-08-19T03:11:14;27.92;;;17.77;;
19879;SDS011;10102;50.828;4.416;2022-08-19T03:13:43;27.73;;;17.83;;
19879;SDS011;10102;50.828;4.416;2022-08-19T03:16:09;30.55;;;18.65;;
19879;SDS011;10102;50.828;4.416;2022-08-19T03:18:35;32.67;;;20.05;;
19879;SDS011;10102;50.828;4.416;2022-08-19T03:21:01;30.08;;;18.75;;
19879;SDS011;10102;50.828;4.416;2022-08-19T03:23:27;35.72;;;21.08;;
19879;SDS011;10102;50.828;4.416;2022-08-19T03:25:53;32.85;;;21.23;;
19879;SDS011;10102;50.828;4.416;2022-08-19T03:28:20;32.67;;;20.55;;
19879;SDS011;10102;50.828;4.416;2022-08-19T03:30:56;34.08;;;20.38;;
19879;SDS011;10102;50.828;4.416;2022-08-19T03:33:31;33.45;;;20.50;;
19879;SDS011;10102;50.828;4.416;2022-08-19T03:38:41;38.00;;;19.77;;
19879;SDS011;10102;50.828;4.416;2022-08-19T03:41:10;31.30;;;18.30;;
19879;SDS011;10102;50.828;4.416;2022-08-19T03:43:39;29.55;;;18.88;;
19879;SDS011;10102;50.828;4.416;2022-08-19T03:46:10;29.15;;;17.98;;
19879;SDS011;10102;50.828;4.416;2022-08-19T03:48:38;30.73;;;18.73;;
19879;SDS011;10102;50.828;4.416;2022-08-19T03:51:05;33.22;;;20.05;;
19879;SDS011;10102;50.828;4.416;2022-08-19T03:53:33;32.55;;;20.48;;
19879;SDS011;10102;50.828;4.416;2022-08-19T03:56:00;37.63;;;21.25;;
19879;SDS011;10102;50.828;4.416;2022-08-19T03:58:27;35.22;;;20.73;;
19879;SDS011;10102;50.828;4.416;2022-08-19T04:00:57;34.78;;;20.85;;
19879;SDS011;10102;50.828;4.416;2022-08-19T04:03:26;35.35;;;20.10;;
19879;SDS011;10102;50.828;4.416;2022-08-19T04:05:52;36.88;;;19.17;;
19879;SDS011;10102;50.828;4.416;2022-08-19T04:08:18;28.95;;;19.10;;
19879;SDS011;10102;50.828;4.416;2022-08-19T04:10:47;36.95;;;20.98;;
19879;SDS011;10102;50.828;4.416;2022-08-19T04:13:14;30.88;;;19.17;;
19879;SDS011;10102;50.828;4.416;2022-08-19T04:15:42;35.58;;;20.52;;
19879;SDS011;10102;50.828;4.416;2022-08-19T04:18:09;35.38;;;21.60;;
19879;SDS011;10102;50.828;4.416;2022-08-19T04:20:39;39.38;;;19.20;;
19879;SDS011;10102;50.828;4.416;2022-08-19T04:23:06;31.95;;;19.88;;
19879;SDS011;10102;50.828;4.416;2022-08-19T04:25:36;35.30;;;19.33;;
19879;SDS011;10102;50.828;4.416;2022-08-19T04:28:03;36.70;;;19.00;;
19879;SDS011;10102;50.828;4.416;2022-08-19T04:30:29;35.25;;;18.20;;
19879;SDS011;10102;50.828;4.416;2022-08-19T04:32:55;36.38;;;18.17;;
19879;SDS011;10102;50.828;4.416;2022-08-19T04:35:21;30.05;;;17.38;;
19879;SDS011;10102;50.828;4.416;2022-08-19T04:37:47;33.67;;;16.75;;
19879;SDS011;10102;50.828;4.416;2022-08-19T04:40:13;30.02;;;16.27;;
19879;SDS011;10102;50.828;4.416;2022-08-19T04:42:57;31.52;;;15.18;;
19879;SDS011;10102;50.828;4.416;2022-08-19T04:45:24;30.33;;;15.80;;
19879;SDS011;10102;50.828;4.416;2022-08-19T04:47:56;25.80;;;14.75;;
19879;SDS011;10102;50.828;4.416;2022-08-19T04:50:22;25.15;;;14.30;;
19879;SDS011;10102;50.828;4.416;2022-08-19T04:52:50;33.17;;;14.40;;
19879;SDS011;10102;50.828;4.416;2022-08-19T04:55:16;28.83;;;14.82;;
19879;SDS011;10102;50.828;4.416;2022-08-19T04:57:43;26.73;;;12.80;;
19879;SDS011;10102;50.828;4.416;2022-08-19T05:00:10;27.58;;;14.85;;
19879;SDS011;10102;50.828;4.416;2022-08-19T05:02:36;26.52;;;15.00;;
19879;SDS011;10102;50.828;4.416;2022-08-19T05:05:03;28.63;;;15.13;;
19879;SDS011;10102;50.828;4.416;2022-08-19T05:07:30;23.58;;;15.90;;
19879;SDS011;10102;50.828;4.416;2022-08-19T05:09:56;27.27;;;15.02;;
19879;SDS011;10102;50.828;4.416;2022-08-19T05:12:22;27.63;;;15.15;;
19879;SDS011;10102;50.828;4.416;2022-08-19T05:14:47;24.92;;;14.73;;
19879;SDS011;10102;50.828;4.416;2022-08-19T05:17:14;32.20;;;15.98;;
19879;SDS011;10102;50.828;4.416;2022-08-19T05:19:40;29.40;;;15.50;;
19879;SDS011;10102;50.828;4.416;2022-08-19T05:22:24;33.75;;;16.65;;
19879;SDS011;10102;50.828;4.416;2022-08-19T05:25:04;29.83;;;15.77;;
19879;SDS011;10102;50.828;4.416;2022-08-19T05:27:33;33.95;;;17.73;;
19879;SDS011;10102;50.828;4.416;2022-08-19T05:29:58;34.75;;;17.77;;
19879;SDS011;10102;50.828;4.416;2022-08-19T05:32:24;24.92;;;16.77;;
19879;SDS011;10102;50.828;4.416;2022-08-19T05:34:53;31.98;;;17.45;;
19879;SDS011;10102;50.828;4.416;2022-08-19T05:37:18;30.10;;;17.38;;
19879;SDS011;10102;50.828;4.416;2022-08-19T05:39:44;30.77;;;16.65;;
19879;SDS011;10102;50.828;4.416;2022-08-19T05:42:13;39.05;;;16.58;;
19879;SDS011;10102;50.828;4.416;2022-08-19T05:44:40;27.23;;;16.65;;
19879;SDS011;10102;50.828;4.416;2022-08-19T05:47:12;29.63;;;16.42;;
19879;SDS011;10102;50.828;4.416;2022-08-19T05:49:39;33.72;;;15.35;;
19879;SDS011;10102;50.828;4.416;2022-08-19T05:52:07;26.10;;;14.57;;
19879;SDS011;10102;50.828;4.416;2022-08-19T05:54:36;27.17;;;15.38;;
19879;SDS011;10102;50.828;4.416;2022-08-19T05:57:07;26.67;;;15.55;;
19879;SDS011;10102;50.828;4.416;2022-08-19T05:59:33;24.00;;;14.85;;
19879;SDS011;10102;50.828;4.416;2022-08-19T06:02:02;27.83;;;15.57;;
19879;SDS011;10102;50.828;4.416;2022-08-19T06:04:41;28.35;;;15.55;;
19879;SDS011;10102;50.828;4.416;2022-08-19T06:07:10;25.90;;;13.95;;
19879;SDS011;10102;50.828;4.416;2022-08-19T06:09:36;21.85;;;12.77;;
19879;SDS011;10102;50.828;4.416;2022-08-19T06:12:02;24.55;;;12.13;;
19879;SDS011;10102;50.828;4.416;2022-08-19T06:14:31;19.58;;;11.50;;
19879;SDS011;10102;50.828;4.416;2022-08-19T06:16:59;18.20;;;10.35;;
19879;SDS011;10102;50.828;4.416;2022-08-19T06:19:27;17.52;;;10.52;;
19879;SDS011;10102;50.828;4.416;2022-08-19T06:21:58;19.30;;;10.30;;
19879;SDS011;10102;50.828;4.416;2022-08-19T06:24:26;21.83;;;10.07;;
19879;SDS011;10102;50.828;4.416;2022-08-19T06:26:53;19.70;;;9.98;;
19879;SDS011;10102;50.828;4.416;2022-08-19T06:29:22;19.40;;;11.02;;
19879;SDS011;10102;50.828;4.416;2022-08-19T06:31:50;14.45;;;8.70;;
19879;SDS011;10102;50.828;4.416;2022-08-19T06:34:18;23.20;;;9.50;;
19879;SDS011;10102;50.828;4.416;2022-08-19T06:36:46;17.48;;;8.75;;
19879;SDS011;10102;50.828;4.416;2022-08-19T06:39:15;15.30;;;7.25;;
19879;SDS011;10102;50.828;4.416;2022-08-19T06:41:45;14.20;;;8.35;;
19879;SDS011;10102;50.828;4.416;2022-08-19T06:44:12;11.32;;;7.65;;
19879;SDS011;10102;50.828;4.416;2022-08-19T06:46:39;12.88;;;7.55;;
19879;SDS011;10102;50.828;4.416;2022-08-19T06:49:06;21.08;;;8.27;;
19879;SDS011;10102;50.828;4.416;2022-08-19T06:51:35;17.38;;;7.68;;
19879;SDS011;10102;50.828;4.416;2022-08-19T06:54:01;17.42;;;7.18;;
19879;SDS011;10102;50.828;4.416;2022-08-19T06:56:28;13.98;;;7.47;;
19879;SDS011;10102;50.828;4.416;2022-08-19T06:59:09;12.18;;;7.15;;
19879;SDS011;10102;50.828;4.416;2022-08-19T07:01:38;15.55;;;7.35;;
19879;SDS011;10102;50.828;4.416;2022-08-19T07:04:09;17.13;;;7.68;;
19879;SDS011;10102;50.828;4.416;2022-08-19T07:06:35;12.90;;;7.65;;
19879;SDS011;10102;50.828;4.416;2022-08-19T07:09:03;15.40;;;8.30;;
19879;SDS011;10102;50.828;4.416;2022-08-19T07:11:32;11.90;;;7.97;;
19879;SDS011;10102;50.828;4.416;2022-08-19T07:13:59;15.50;;;7.40;;
19879;SDS011;10102;50.828;4.416;2022-08-19T07:16:25;20.17;;;7.50;;
19879;SDS011;10102;50.828;4.416;2022-08-19T07:18:52;13.02;;;7.28;;
19879;SDS011;10102;50.828;4.416;2022-08-19T07:21:19;14.80;;;7.95;;
19879;SDS011;10102;50.828;4.416;2022-08-19T07:23:53;15.95;;;7.95;;
19879;SDS011;10102;50.828;4.416;2022-08-19T07:26:30;18.52;;;7.65;;
19879;SDS011;10102;50.828;4.416;2022-08-19T07:29:03;15.30;;;8.30;;
19879;SDS011;10102;50.828;4.416;2022-08-19T07:31:29;15.77;;;7.68;;
19879;SDS011;10102;50.828;4.416;2022-08-19T07:33:55;14.55;;;7.78;;
19879;SDS011;10102;50.828;4.416;2022-08-19T07:36:23;15.20;;;7.95;;
19879;SDS011;10102;50.828;4.416;2022-08-19T07:38:57;13.35;;;7.03;;
19879;SDS011;10102;50.828;4.416;2022-08-19T07:41:25;13.75;;;7.47;;
19879;SDS011;10102;50.828;4.416;2022-08-19T07:43:54;15.10;;;6.93;;
19879;SDS011;10102;50.828;4.416;2022-08-19T07:46:20;10.73;;;7.13;;
19879;SDS011;10102;50.828;4.416;2022-08-19T07:48:46;10.13;;;6.53;;
19879;SDS011;10102;50.828;4.416;2022-08-19T07:51:15;14.25;;;6.90;;
19879;SDS011;10102;50.828;4.416;2022-08-19T07:53:43;11.70;;;7.32;;
19879;SDS011;10102;50.828;4.416;2022-08-19T07:56:10;13.82;;;6.30;;
19879;SDS011;10102;50.828;4.416;2022-08-19T07:58:39;11.52;;;6.30;;
19879;SDS011;10102;50.828;4.416;2022-08-19T08:01:07;11.43;;;6.68;;
19879;SDS011;10102;50.828;4.416;2022-08-19T08:03:35;11.52;;;6.53;;
19879;SDS011;10102;50.828;4.416;2022-08-19T08:06:20;15.15;;;6.68;;
19879;SDS011;10102;50.828;4.416;2022-08-19T08:09:05;13.73;;;6.45;;
19879;SDS011;10102;50.828;4.416;2022-08-19T08:11:38;11.77;;;6.50;;
19879;SDS011;10102;50.828;4.416;2022-08-19T08:14:07;13.18;;;7.15;;
19879;SDS011;10102;50.828;4.416;2022-08-19T08:16:35;12.77;;;6.68;;
19879;SDS011;10102;50.828;4.416;2022-08-19T08:19:03;15.05;;;6.68;;
19879;SDS011;10102;50.828;4.416;2022-08-19T08:21:31;12.90;;;6.18;;
19879;SDS011;10102;50.828;4.416;2022-08-19T08:23:58;13.80;;;6.70;;
19879;SDS011;10102;50.828;4.416;2022-08-19T08:26:24;9.52;;;5.75;;
19879;SDS011;10102;50.828;4.416;2022-08-19T08:28:50;15.02;;;6.15;;
19879;SDS011;10102;50.828;4.416;2022-08-19T08:31:17;9.35;;;5.72;;
19879;SDS011;10102;50.828;4.416;2022-08-19T08:33:46;14.23;;;5.65;;
19879;SDS011;10102;50.828;4.416;2022-08-19T08:36:12;8.45;;;5.20;;
19879;SDS011;10102;50.828;4.416;2022-08-19T08:38:39;10.15;;;5.03;;
19879;SDS011;10102;50.828;4.416;2022-08-19T08:41:12;10.82;;;4.97;;
19879;SDS011;10102;50.828;4.416;2022-08-19T08:43:53;6.40;;;4.40;;
19879;SDS011;10102;50.828;4.416;2022-08-19T08:51:46;6.30;;;4.53;;
19879;SDS011;10102;50.828;4.416;2022-08-19T08:54:20;16.73;;;5.20;;
19879;SDS011;10102;50.828;4.416;2022-08-19T08:56:50;10.35;;;4.70;;
19879;SDS011;10102;50.828;4.416;2022-08-19T08:59:21;13.82;;;5.25;;
19879;SDS011;10102;50.828;4.416;2022-08-19T09:01:48;11.73;;;4.95;;
19879;SDS011;10102;50.828;4.416;2022-08-19T09:04:14;9.00;;;4.80;;
19879;SDS011;10102;50.828;4.416;2022-08-19T09:06:44;8.63;;;4.53;;
19879;SDS011;10102;50.828;4.416;2022-08-19T09:09:31;9.70;;;5.75;;
19879;SDS011;10102;50.828;4.416;2022-08-19T09:15:00;12.50;;;4.85;;
19879;SDS011;10102;50.828;4.416;2022-08-19T09:17:31;6.72;;;4.72;;
19879;SDS011;10102;50.828;4.416;2022-08-19T09:20:06;13.35;;;5.57;;
19879;SDS011;10102;50.828;4.416;2022-08-19T09:22:43;8.80;;;4.80;;
19879;SDS011;10102;50.828;4.416;2022-08-19T09:25:10;7.85;;;4.40;;
19879;SDS011;10102;50.828;4.416;2022-08-19T09:27:39;11.02;;;4.68;;
19879;SDS011;10102;50.828;4.416;2022-08-19T09:30:07;8.63;;;4.18;;
19879;SDS011;10102;50.828;4.416;2022-08-19T09:32:37;9.10;;;4.75;;
19879;SDS011;10102;50.828;4.416;2022-08-19T09:35:04;9.88;;;4.75;;
19879;SDS011;10102;50.828;4.416;2022-08-19T09:37:31;12.90;;;4.28;;
19879;SDS011;10102;50.828;4.416;2022-08-19T09:39:56;12.82;;;4.60;;
19879;SDS011;10102;50.828;4.416;2022-08-19T09:42:22;12.25;;;3.97;;
19879;SDS011;10102;50.828;4.416;2022-08-19T09:44:48;7.47;;;4.60;;
19879;SDS011;10102;50.828;4.416;2022-08-19T09:47:14;7.05;;;5.03;;
19879;SDS011;10102;50.828;4.416;2022-08-19T09:49:40;8.63;;;5.05;;
19879;SDS011;10102;50.828;4.416;2022-08-19T09:52:10;7.68;;;4.80;;
19879;SDS011;10102;50.828;4.416;2022-08-19T09:54:39;12.80;;;4.80;;
19879;SDS011;10102;50.828;4.416;2022-08-19T09:57:05;11.40;;;4.47;;
19879;SDS011;10102;50.828;4.416;2022-08-19T09:59:31;10.25;;;4.90;;
19879;SDS011;10102;50.828;4.416;2022-08-19T10:01:57;7.47;;;4.25;;
19879;SDS011;10102;50.828;4.416;2022-08-19T10:04:22;8.35;;;4.50;;
19879;SDS011;10102;50.828;4.416;2022-08-19T10:07:08;7.43;;;4.18;;
19879;SDS011;10102;50.828;4.416;2022-08-19T10:09:34;6.78;;;3.97;;
19879;SDS011;10102;50.828;4.416;2022-08-19T10:12:00;11.70;;;4.93;;
19879;SDS011;10102;50.828;4.416;2022-08-19T10:14:26;12.50;;;4.70;;
19879;SDS011;10102;50.828;4.416;2022-08-19T10:16:53;8.98;;;4.50;;
19879;SDS011;10102;50.828;4.416;2022-08-19T10:19:19;6.40;;;4.65;;
19879;SDS011;10102;50.828;4.416;2022-08-19T10:21:46;8.80;;;3.25;;
19879;SDS011;10102;50.828;4.416;2022-08-19T10:24:11;7.53;;;4.70;;
19879;SDS011;10102;50.828;4.416;2022-08-19T10:26:38;8.10;;;4.35;;
19879;SDS011;10102;50.828;4.416;2022-08-19T10:29:07;6.47;;;4.82;;
19879;SDS011;10102;50.828;4.416;2022-08-19T10:31:33;6.13;;;4.53;;
19879;SDS011;10102;50.828;4.416;2022-08-19T10:33:59;7.68;;;4.95;;
19879;SDS011;10102;50.828;4.416;2022-08-19T10:36:27;6.93;;;4.68;;
19879;SDS011;10102;50.828;4.416;2022-08-19T10:38:55;9.27;;;5.03;;
19879;SDS011;10102;50.828;4.416;2022-08-19T10:41:25;7.95;;;4.80;;
19879;SDS011;10102;50.828;4.416;2022-08-19T10:43:52;10.40;;;6.18;;
19879;SDS011;10102;50.828;4.416;2022-08-19T10:46:19;10.70;;;5.85;;
19879;SDS011;10102;50.828;4.416;2022-08-19T10:48:47;8.68;;;5.97;;
19879;SDS011;10102;50.828;4.416;2022-08-19T10:51:15;8.15;;;5.50;;
19879;SDS011;10102;50.828;4.416;2022-08-19T10:54:00;8.93;;;6.60;;
19879;SDS011;10102;50.828;4.416;2022-08-19T10:56:26;10.38;;;6.50;;
19879;SDS011;10102;50.828;4.416;2022-08-19T10:59:11;6.93;;;5.45;;
19879;SDS011;10102;50.828;4.416;2022-08-19T11:01:41;9.63;;;6.20;;
19879;SDS011;10102;50.828;4.416;2022-08-19T11:04:08;8.70;;;5.80;;
19879;SDS011;10102;50.828;4.416;2022-08-19T11:06:37;9.90;;;6.88;;
19879;SDS011;10102;50.828;4.416;2022-08-19T11:09:04;11.77;;;6.55;;
19879;SDS011;10102;50.828;4.416;2022-08-19T11:11:31;12.52;;;7.03;;
19879;SDS011;10102;50.828;4.416;2022-08-19T11:14:04;12.23;;;7.10;;
19879;SDS011;10102;50.828;4.416;2022-08-19T11:16:31;9.43;;;6.15;;
19879;SDS011;10102;50.828;4.416;2022-08-19T11:18:57;9.23;;;6.13;;
19879;SDS011;10102;50.828;4.416;2022-08-19T11:21:31;11.80;;;5.97;;
19879;SDS011;10102;50.828;4.416;2022-08-19T11:24:00;9.38;;;6.80;;
19879;SDS011;10102;50.828;4.416;2022-08-19T11:26:29;11.73;;;7.03;;
19879;SDS011;10102;50.828;4.416;2022-08-19T11:28:56;15.10;;;7.32;;
19879;SDS011;10102;50.828;4.416;2022-08-19T11:31:24;10.27;;;7.28;;
19879;SDS011;10102;50.828;4.416;2022-08-19T11:33:51;13.90;;;7.20;;
19879;SDS011;10102;50.828;4.416;2022-08-19T11:36:19;11.60;;;7.70;;
19879;SDS011;10102;50.828;4.416;2022-08-19T11:38:47;12.38;;;8.40;;
19879;SDS011;10102;50.828;4.416;2022-08-19T11:41:14;11.05;;;8.35;;
19879;SDS011;10102;50.828;4.416;2022-08-19T11:43:42;15.52;;;8.98;;
19879;SDS011;10102;50.828;4.416;2022-08-19T11:46:09;10.35;;;7.65;;
19879;SDS011;10102;50.828;4.416;2022-08-19T11:48:36;11.85;;;7.95;;
19879;SDS011;10102;50.828;4.416;2022-08-19T11:51:07;16.77;;;8.05;;
19879;SDS011;10102;50.828;4.416;2022-08-19T11:53:37;13.02;;;7.63;;
19879;SDS011;10102;50.828;4.416;2022-08-19T11:56:03;10.13;;;7.30;;
19879;SDS011;10102;50.828;4.416;2022-08-19T11:58:30;11.57;;;6.35;;
19879;SDS011;10102;50.828;4.416;2022-08-19T12:00:56;12.82;;;6.97;;
19879;SDS011;10102;50.828;4.416;2022-08-19T12:03:22;10.98;;;6.30;;
19879;SDS011;10102;50.828;4.416;2022-08-19T12:05:48;10.38;;;6.68;;
19879;SDS011;10102;50.828;4.416;2022-08-19T12:08:15;14.30;;;5.90;;
19879;SDS011;10102;50.828;4.416;2022-08-19T12:10:41;16.52;;;5.78;;
19879;SDS011;10102;50.828;4.416;2022-08-19T12:13:11;8.00;;;5.30;;
19879;SDS011;10102;50.828;4.416;2022-08-19T12:15:40;9.95;;;5.55;;
19879;SDS011;10102;50.828;4.416;2022-08-19T12:18:07;9.57;;;4.60;;
19879;SDS011;10102;50.828;4.416;2022-08-19T12:20:37;8.38;;;4.47;;
19879;SDS011;10102;50.828;4.416;2022-08-19T12:23:05;11.95;;;4.93;;
19879;SDS011;10102;50.828;4.416;2022-08-19T12:25:32;10.82;;;5.28;;
19879;SDS011;10102;50.828;4.416;2022-08-19T12:27:59;7.43;;;4.63;;
19879;SDS011;10102;50.828;4.416;2022-08-19T12:30:25;5.93;;;4.53;;
19879;SDS011;10102;50.828;4.416;2022-08-19T12:32:51;5.22;;;3.55;;
19879;SDS011;10102;50.828;4.416;2022-08-19T12:35:17;7.72;;;4.32;;
19879;SDS011;10102;50.828;4.416;2022-08-19T12:37:44;4.93;;;3.83;;
19879;SDS011;10102;50.828;4.416;2022-08-19T12:40:12;4.80;;;3.70;;
19879;SDS011;10102;50.828;4.416;2022-08-19T12:42:38;5.28;;;4.05;;
19879;SDS011;10102;50.828;4.416;2022-08-19T12:45:11;9.85;;;3.25;;
19879;SDS011;10102;50.828;4.416;2022-08-19T12:47:38;5.18;;;3.60;;
19879;SDS011;10102;50.828;4.416;2022-08-19T12:50:05;7.82;;;2.90;;
19879;SDS011;10102;50.828;4.416;2022-08-19T12:52:33;3.80;;;2.33;;
19879;SDS011;10102;50.828;4.416;2022-08-19T12:55:02;4.32;;;2.38;;
19879;SDS011;10102;50.828;4.416;2022-08-19T12:57:30;6.97;;;2.72;;
19879;SDS011;10102;50.828;4.416;2022-08-19T12:59:58;3.17;;;2.30;;
19879;SDS011;10102;50.828;4.416;2022-08-19T13:02:35;6.22;;;2.58;;
19879;SDS011;10102;50.828;4.416;2022-08-19T13:05:02;2.95;;;1.70;;
19879;SDS011;10102;50.828;4.416;2022-08-19T13:07:29;9.65;;;2.53;;
19879;SDS011;10102;50.828;4.416;2022-08-19T13:09:57;3.50;;;2.00;;
19879;SDS011;10102;50.828;4.416;2022-08-19T13:12:22;5.25;;;1.75;;
19879;SDS011;10102;50.828;4.416;2022-08-19T13:14:51;7.53;;;2.58;;
19879;SDS011;10102;50.828;4.416;2022-08-19T13:17:20;8.48;;;2.05;;
19879;SDS011;10102;50.828;4.416;2022-08-19T13:19:46;10.55;;;1.92;;
19879;SDS011;10102;50.828;4.416;2022-08-19T13:22:11;5.75;;;1.50;;
19879;SDS011;10102;50.828;4.416;2022-08-19T13:24:37;2.63;;;1.80;;
19879;SDS011;10102;50.828;4.416;2022-08-19T13:27:03;6.78;;;1.98;;
19879;SDS011;10102;50.828;4.416;2022-08-19T13:29:29;4.50;;;1.55;;
19879;SDS011;10102;50.828;4.416;2022-08-19T13:32:14;1.77;;;1.30;;
19879;SDS011;10102;50.828;4.416;2022-08-19T13:34:58;6.30;;;1.30;;
19879;SDS011;10102;50.828;4.416;2022-08-19T13:37:24;2.55;;;1.80;;
19879;SDS011;10102;50.828;4.416;2022-08-19T13:40:09;5.18;;;1.63;;
19879;SDS011;10102;50.828;4.416;2022-08-19T13:42:38;12.25;;;2.38;;
19879;SDS011;10102;50.828;4.416;2022-08-19T13:45:04;10.05;;;1.65;;
19879;SDS011;10102;50.828;4.416;2022-08-19T13:47:31;3.53;;;1.42;;
19879;SDS011;10102;50.828;4.416;2022-08-19T13:49:59;3.60;;;1.52;;
19879;SDS011;10102;50.828;4.416;2022-08-19T13:52:28;9.73;;;1.40;;
19879;SDS011;10102;50.828;4.416;2022-08-19T13:54:54;2.35;;;1.35;;
19879;SDS011;10102;50.828;4.416;2022-08-19T13:57:20;1.77;;;1.23;;
19879;SDS011;10102;50.828;4.416;2022-08-19T13:59:45;3.10;;;1.52;;
19879;SDS011;10102;50.828;4.416;2022-08-19T14:02:11;5.53;;;1.67;;
19879;SDS011;10102;50.828;4.416;2022-08-19T14:04:37;5.93;;;1.70;;
19879;SDS011;10102;50.828;4.416;2022-08-19T14:07:03;6.25;;;1.70;;
19879;SDS011;10102;50.828;4.416;2022-08-19T14:09:29;5.57;;;1.42;;
19879;SDS011;10102;50.828;4.416;2022-08-19T14:11:55;2.67;;;1.38;;
19879;SDS011;10102;50.828;4.416;2022-08-19T14:14:20;5.07;;;1.35;;
19879;SDS011;10102;50.828;4.416;2022-08-19T14:16:46;1.92;;;1.30;;
19879;SDS011;10102;50.828;4.416;2022-08-19T14:19:13;2.10;;;1.35;;
19879;SDS011;10102;50.828;4.416;2022-08-19T14:21:39;2.05;;;1.40;;
19879;SDS011;10102;50.828;4.416;2022-08-19T14:24:06;1.60;;;1.33;;
19879;SDS011;10102;50.828;4.416;2022-08-19T14:26:33;2.33;;;1.10;;
19879;SDS011;10102;50.828;4.416;2022-08-19T14:29:00;3.88;;;1.73;;
19879;SDS011;10102;50.828;4.416;2022-08-19T14:31:27;8.10;;;1.58;;
19879;SDS011;10102;50.828;4.416;2022-08-19T14:33:52;2.63;;;1.25;;
19879;SDS011;10102;50.828;4.416;2022-08-19T14:36:19;1.60;;;1.10;;
19879;SDS011;10102;50.828;4.416;2022-08-19T14:38:46;2.75;;;1.67;;
19879;SDS011;10102;50.828;4.416;2022-08-19T14:41:17;1.95;;;1.40;;
19879;SDS011;10102;50.828;4.416;2022-08-19T14:43:46;1.80;;;1.13;;
19879;SDS011;10102;50.828;4.416;2022-08-19T14:46:15;3.40;;;1.27;;
19879;SDS011;10102;50.828;4.416;2022-08-19T14:48:45;2.55;;;1.27;;
19879;SDS011;10102;50.828;4.416;2022-08-19T14:51:12;1.63;;;0.98;;
19879;SDS011;10102;50.828;4.416;2022-08-19T14:53:39;5.00;;;1.20;;